sensor_id;sensor_type;location;lat;lon;timestamp;P1;durP1;ratioP1;P2;durP2;ratioP2
51438;SDS011;38816;51.142;-0.974;2023-11-22T00:02:05;10.05;;;4.60;;
51438;SDS011;38816;51.142;-0.974;2023-11-22T00:04:31;11.85;;;4.47;;
51438;SDS011;38816;51.142;-0.974;2023-11-22T00:06:56;17.38;;;4.43;;
51438;SDS011;38816;51.142;-0.974;2023-11-22T00:09:22;11.93;;;4.38;;
51438;SDS011;38816;51.142;-0.974;2023-11-22T00:11:48;8.88;;;4.25;;
51438;SDS011;38816;51.142;-0.974;2023-11-22T00:14:14;14.95;;;3.95;;
51438;SDS011;38816;51.142;-0.974;2023-11-22T00:16:39;12.10;;;4.40;;
51438;SDS011;38816;51.142;-0.974;2023-11-22T00:19:05;9.88;;;3.75;;
51438;SDS011;38816;51.142;-0.974;2023-11-22T00:21:31;9.18;;;4.55;;
51438;SDS011;38816;51.142;-0.974;2023-11-22T00:23:57;20.33;;;4.90;;
51438;SDS011;38816;51.142;-0.974;2023-11-22T00:26:23;9.38;;;4.38;;
51438;SDS011;38816;51.142;-0.974;2023-11-22T00:28:48;16.27;;;4.15;;
51438;SDS011;38816;51.142;-0.974;2023-11-22T00:31:14;12.48;;;4.25;;
51438;SDS011;38816;51.142;-0.974;2023-11-22T00:33:40;8.27;;;4.10;;
51438;SDS011;38816;51.142;-0.974;2023-11-22T00:36:05;11.02;;;4.00;;
51438;SDS011;38816;51.142;-0.974;2023-11-22T00:38:33;14.80;;;4.05;;
51438;SDS011;38816;51.142;-0.974;2023-11-22T00:41:01;9.00;;;4.57;;
51438;SDS011;38816;51.142;-0.974;2023-11-22T00:43:27;11.60;;;3.90;;
51438;SDS011;38816;51.142;-0.974;2023-11-22T00:45:52;9.25;;;4.20;;
51438;SDS011;38816;51.142;-0.974;2023-11-22T00:48:18;9.20;;;4.43;;
51438;SDS011;38816;51.142;-0.974;2023-11-22T00:50:43;16.85;;;4.20;;
51438;SDS011;38816;51.142;-0.974;2023-11-22T00:53:10;10.00;;;4.10;;
51438;SDS011;38816;51.142;-0.974;2023-11-22T00:55:36;16.48;;;4.75;;
51438;SDS011;38816;51.142;-0.974;2023-11-22T00:58:01;17.33;;;4.65;;
51438;SDS011;38816;51.142;-0.974;2023-11-22T01:00:29;14.77;;;4.28;;
51438;SDS011;38816;51.142;-0.974;2023-11-22T01:02:55;15.20;;;5.30;;
51438;SDS011;38816;51.142;-0.974;2023-11-22T01:05:21;16.65;;;4.45;;
51438;SDS011;38816;51.142;-0.974;2023-11-22T01:07:47;14.95;;;6.40;;
51438;SDS011;38816;51.142;-0.974;2023-11-22T01:10:13;16.35;;;6.43;;
51438;SDS011;38816;51.142;-0.974;2023-11-22T01:12:38;14.55;;;6.18;;
51438;SDS011;38816;51.142;-0.974;2023-11-22T01:15:04;10.27;;;5.28;;
51438;SDS011;38816;51.142;-0.974;2023-11-22T01:17:31;12.18;;;5.05;;
51438;SDS011;38816;51.142;-0.974;2023-11-22T01:19:56;13.13;;;5.20;;
51438;SDS011;38816;51.142;-0.974;2023-11-22T01:22:23;14.32;;;5.85;;
51438;SDS011;38816;51.142;-0.974;2023-11-22T01:24:49;14.82;;;5.70;;
51438;SDS011;38816;51.142;-0.974;2023-11-22T01:27:14;16.60;;;5.55;;
51438;SDS011;38816;51.142;-0.974;2023-11-22T01:29:40;12.68;;;5.18;;
51438;SDS011;38816;51.142;-0.974;2023-11-22T01:32:06;15.45;;;5.47;;
51438;SDS011;38816;51.142;-0.974;2023-11-22T01:34:33;13.48;;;4.88;;
51438;SDS011;38816;51.142;-0.974;2023-11-22T01:36:59;10.90;;;5.75;;
51438;SDS011;38816;51.142;-0.974;2023-11-22T01:39:24;15.20;;;5.22;;
51438;SDS011;38816;51.142;-0.974;2023-11-22T01:41:51;21.02;;;5.10;;
51438;SDS011;38816;51.142;-0.974;2023-11-22T01:44:16;12.18;;;4.85;;
51438;SDS011;38816;51.142;-0.974;2023-11-22T01:46:43;16.15;;;4.75;;
51438;SDS011;38816;51.142;-0.974;2023-11-22T01:49:09;16.73;;;5.60;;
51438;SDS011;38816;51.142;-0.974;2023-11-22T01:51:37;7.47;;;4.75;;
51438;SDS011;38816;51.142;-0.974;2023-11-22T01:54:03;15.10;;;4.93;;
51438;SDS011;38816;51.142;-0.974;2023-11-22T01:56:29;15.07;;;5.47;;
51438;SDS011;38816;51.142;-0.974;2023-11-22T01:58:56;10.52;;;5.40;;
51438;SDS011;38816;51.142;-0.974;2023-11-22T02:01:25;9.48;;;4.63;;
51438;SDS011;38816;51.142;-0.974;2023-11-22T02:03:51;15.05;;;5.18;;
51438;SDS011;38816;51.142;-0.974;2023-11-22T02:06:18;16.58;;;5.57;;
51438;SDS011;38816;51.142;-0.974;2023-11-22T02:08:46;17.13;;;6.00;;
51438;SDS011;38816;51.142;-0.974;2023-11-22T02:11:12;10.93;;;5.93;;
51438;SDS011;38816;51.142;-0.974;2023-11-22T02:13:37;12.68;;;6.38;;
51438;SDS011;38816;51.142;-0.974;2023-11-22T02:16:03;17.80;;;6.95;;
51438;SDS011;38816;51.142;-0.974;2023-11-22T02:18:29;16.83;;;6.85;;
51438;SDS011;38816;51.142;-0.974;2023-11-22T02:20:55;14.38;;;6.97;;
51438;SDS011;38816;51.142;-0.974;2023-11-22T02:23:21;13.63;;;7.32;;
51438;SDS011;38816;51.142;-0.974;2023-11-22T02:25:47;14.23;;;7.90;;
51438;SDS011;38816;51.142;-0.974;2023-11-22T02:28:12;12.73;;;6.35;;
51438;SDS011;38816;51.142;-0.974;2023-11-22T02:30:38;13.77;;;6.97;;
51438;SDS011;38816;51.142;-0.974;2023-11-22T02:33:04;19.60;;;8.75;;
51438;SDS011;38816;51.142;-0.974;2023-11-22T02:35:32;14.15;;;8.23;;
51438;SDS011;38816;51.142;-0.974;2023-11-22T02:37:58;10.43;;;7.07;;
51438;SDS011;38816;51.142;-0.974;2023-11-22T02:40:24;12.68;;;8.07;;
51438;SDS011;38816;51.142;-0.974;2023-11-22T02:42:51;15.25;;;8.18;;
51438;SDS011;38816;51.142;-0.974;2023-11-22T02:45:32;11.50;;;8.05;;
51438;SDS011;38816;51.142;-0.974;2023-11-22T02:47:58;11.88;;;8.20;;
51438;SDS011;38816;51.142;-0.974;2023-11-22T02:50:24;12.32;;;8.27;;
51438;SDS011;38816;51.142;-0.974;2023-11-22T02:52:50;16.65;;;9.45;;
51438;SDS011;38816;51.142;-0.974;2023-11-22T02:55:16;14.75;;;8.75;;
51438;SDS011;38816;51.142;-0.974;2023-11-22T02:57:41;10.25;;;8.35;;
51438;SDS011;38816;51.142;-0.974;2023-11-22T03:00:07;9.45;;;8.45;;
51438;SDS011;38816;51.142;-0.974;2023-11-22T03:02:34;18.88;;;9.07;;
51438;SDS011;38816;51.142;-0.974;2023-11-22T03:04:59;15.35;;;7.72;;
51438;SDS011;38816;51.142;-0.974;2023-11-22T03:07:26;19.08;;;7.55;;
51438;SDS011;38816;51.142;-0.974;2023-11-22T03:09:51;15.95;;;7.15;;
51438;SDS011;38816;51.142;-0.974;2023-11-22T03:12:18;24.08;;;8.30;;
51438;SDS011;38816;51.142;-0.974;2023-11-22T03:14:45;15.45;;;7.82;;
51438;SDS011;38816;51.142;-0.974;2023-11-22T03:17:11;17.98;;;7.82;;
51438;SDS011;38816;51.142;-0.974;2023-11-22T03:19:38;16.25;;;8.25;;
51438;SDS011;38816;51.142;-0.974;2023-11-22T03:22:04;18.95;;;9.20;;
51438;SDS011;38816;51.142;-0.974;2023-11-22T03:24:30;20.40;;;8.45;;
51438;SDS011;38816;51.142;-0.974;2023-11-22T03:26:56;16.52;;;8.68;;
51438;SDS011;38816;51.142;-0.974;2023-11-22T03:29:24;25.50;;;8.48;;
51438;SDS011;38816;51.142;-0.974;2023-11-22T03:31:50;18.38;;;7.57;;
51438;SDS011;38816;51.142;-0.974;2023-11-22T03:34:16;23.23;;;7.80;;
51438;SDS011;38816;51.142;-0.974;2023-11-22T03:36:42;17.10;;;7.53;;
51438;SDS011;38816;51.142;-0.974;2023-11-22T03:39:07;20.83;;;8.27;;
51438;SDS011;38816;51.142;-0.974;2023-11-22T03:41:35;25.10;;;8.65;;
51438;SDS011;38816;51.142;-0.974;2023-11-22T03:44:02;30.13;;;7.80;;
51438;SDS011;38816;51.142;-0.974;2023-11-22T03:46:29;22.00;;;9.05;;
51438;SDS011;38816;51.142;-0.974;2023-11-22T03:48:55;19.58;;;7.78;;
51438;SDS011;38816;51.142;-0.974;2023-11-22T03:51:20;23.33;;;8.00;;
51438;SDS011;38816;51.142;-0.974;2023-11-22T03:53:46;25.90;;;9.05;;
51438;SDS011;38816;51.142;-0.974;2023-11-22T03:56:11;23.17;;;8.85;;
51438;SDS011;38816;51.142;-0.974;2023-11-22T03:58:36;19.52;;;8.40;;
51438;SDS011;38816;51.142;-0.974;2023-11-22T04:01:02;21.55;;;9.30;;
51438;SDS011;38816;51.142;-0.974;2023-11-22T04:03:28;26.65;;;9.55;;
51438;SDS011;38816;51.142;-0.974;2023-11-22T04:05:53;29.65;;;10.13;;
51438;SDS011;38816;51.142;-0.974;2023-11-22T04:08:19;23.77;;;8.25;;
51438;SDS011;38816;51.142;-0.974;2023-11-22T04:10:45;21.17;;;8.40;;
51438;SDS011;38816;51.142;-0.974;2023-11-22T04:13:10;21.98;;;8.80;;
51438;SDS011;38816;51.142;-0.974;2023-11-22T04:15:36;22.55;;;8.98;;
51438;SDS011;38816;51.142;-0.974;2023-11-22T04:18:01;23.70;;;9.07;;
51438;SDS011;38816;51.142;-0.974;2023-11-22T04:20:27;19.30;;;9.52;;
51438;SDS011;38816;51.142;-0.974;2023-11-22T04:22:52;18.25;;;9.13;;
51438;SDS011;38816;51.142;-0.974;2023-11-22T04:25:18;22.35;;;9.27;;
51438;SDS011;38816;51.142;-0.974;2023-11-22T04:27:43;17.90;;;9.48;;
51438;SDS011;38816;51.142;-0.974;2023-11-22T04:30:09;20.00;;;9.38;;
51438;SDS011;38816;51.142;-0.974;2023-11-22T04:32:39;17.98;;;9.18;;
51438;SDS011;38816;51.142;-0.974;2023-11-22T04:35:07;28.48;;;10.05;;
51438;SDS011;38816;51.142;-0.974;2023-11-22T04:37:34;27.27;;;9.45;;
51438;SDS011;38816;51.142;-0.974;2023-11-22T04:40:00;26.67;;;10.90;;
51438;SDS011;38816;51.142;-0.974;2023-11-22T04:42:32;23.95;;;9.55;;
51438;SDS011;38816;51.142;-0.974;2023-11-22T04:44:59;27.15;;;9.60;;
51438;SDS011;38816;51.142;-0.974;2023-11-22T04:47:24;17.00;;;8.60;;
51438;SDS011;38816;51.142;-0.974;2023-11-22T04:49:50;20.13;;;8.65;;
51438;SDS011;38816;51.142;-0.974;2023-11-22T04:52:16;29.25;;;9.38;;
51438;SDS011;38816;51.142;-0.974;2023-11-22T04:54:41;18.48;;;9.32;;
51438;SDS011;38816;51.142;-0.974;2023-11-22T04:57:07;24.80;;;9.50;;
51438;SDS011;38816;51.142;-0.974;2023-11-22T04:59:32;19.98;;;8.30;;
51438;SDS011;38816;51.142;-0.974;2023-11-22T05:01:58;21.80;;;8.52;;
51438;SDS011;38816;51.142;-0.974;2023-11-22T05:04:23;21.08;;;7.22;;
51438;SDS011;38816;51.142;-0.974;2023-11-22T05:06:49;20.83;;;7.60;;
51438;SDS011;38816;51.142;-0.974;2023-11-22T05:09:14;21.83;;;8.18;;
51438;SDS011;38816;51.142;-0.974;2023-11-22T05:11:41;21.08;;;7.65;;
51438;SDS011;38816;51.142;-0.974;2023-11-22T05:14:06;14.65;;;7.65;;
51438;SDS011;38816;51.142;-0.974;2023-11-22T05:16:32;23.23;;;8.38;;
51438;SDS011;38816;51.142;-0.974;2023-11-22T05:18:58;18.33;;;8.88;;
51438;SDS011;38816;51.142;-0.974;2023-11-22T05:21:24;19.65;;;9.85;;
51438;SDS011;38816;51.142;-0.974;2023-11-22T05:23:49;19.77;;;10.80;;
51438;SDS011;38816;51.142;-0.974;2023-11-22T05:26:15;20.27;;;10.15;;
51438;SDS011;38816;51.142;-0.974;2023-11-22T05:28:41;20.73;;;9.93;;
51438;SDS011;38816;51.142;-0.974;2023-11-22T05:31:06;16.25;;;9.98;;
51438;SDS011;38816;51.142;-0.974;2023-11-22T05:33:32;27.75;;;11.63;;
51438;SDS011;38816;51.142;-0.974;2023-11-22T05:35:57;23.13;;;10.32;;
51438;SDS011;38816;51.142;-0.974;2023-11-22T05:38:23;24.05;;;10.85;;
51438;SDS011;38816;51.142;-0.974;2023-11-22T05:40:48;22.52;;;10.05;;
51438;SDS011;38816;51.142;-0.974;2023-11-22T05:43:14;18.73;;;9.45;;
51438;SDS011;38816;51.142;-0.974;2023-11-22T05:45:40;19.08;;;8.50;;
51438;SDS011;38816;51.142;-0.974;2023-11-22T05:48:05;20.85;;;8.98;;
51438;SDS011;38816;51.142;-0.974;2023-11-22T05:50:31;15.95;;;9.43;;
51438;SDS011;38816;51.142;-0.974;2023-11-22T05:52:56;22.48;;;11.30;;
51438;SDS011;38816;51.142;-0.974;2023-11-22T05:55:21;16.67;;;10.55;;
51438;SDS011;38816;51.142;-0.974;2023-11-22T05:57:48;20.63;;;10.85;;
51438;SDS011;38816;51.142;-0.974;2023-11-22T06:00:13;17.60;;;11.07;;
51438;SDS011;38816;51.142;-0.974;2023-11-22T06:02:39;14.40;;;12.75;;
51438;SDS011;38816;51.142;-0.974;2023-11-22T06:05:05;20.55;;;11.75;;
51438;SDS011;38816;51.142;-0.974;2023-11-22T06:07:31;21.30;;;13.00;;
51438;SDS011;38816;51.142;-0.974;2023-11-22T06:09:56;21.75;;;14.13;;
51438;SDS011;38816;51.142;-0.974;2023-11-22T06:12:22;28.05;;;15.55;;
51438;SDS011;38816;51.142;-0.974;2023-11-22T06:14:48;28.35;;;14.80;;
51438;SDS011;38816;51.142;-0.974;2023-11-22T06:17:13;28.00;;;14.68;;
51438;SDS011;38816;51.142;-0.974;2023-11-22T06:19:39;23.48;;;12.77;;
51438;SDS011;38816;51.142;-0.974;2023-11-22T06:22:06;19.67;;;11.32;;
51438;SDS011;38816;51.142;-0.974;2023-11-22T06:24:32;19.17;;;11.25;;
51438;SDS011;38816;51.142;-0.974;2023-11-22T06:26:58;19.00;;;10.70;;
51438;SDS011;38816;51.142;-0.974;2023-11-22T06:29:24;12.32;;;9.70;;
51438;SDS011;38816;51.142;-0.974;2023-11-22T06:31:49;16.45;;;10.07;;
51438;SDS011;38816;51.142;-0.974;2023-11-22T06:34:18;19.77;;;9.43;;
51438;SDS011;38816;51.142;-0.974;2023-11-22T06:36:44;17.38;;;8.80;;
51438;SDS011;38816;51.142;-0.974;2023-11-22T06:39:09;19.58;;;8.98;;
51438;SDS011;38816;51.142;-0.974;2023-11-22T06:41:39;17.23;;;9.25;;
51438;SDS011;38816;51.142;-0.974;2023-11-22T06:44:06;16.38;;;9.05;;
51438;SDS011;38816;51.142;-0.974;2023-11-22T06:46:31;14.43;;;9.40;;
51438;SDS011;38816;51.142;-0.974;2023-11-22T06:48:56;21.35;;;9.35;;
51438;SDS011;38816;51.142;-0.974;2023-11-22T06:51:23;20.55;;;9.75;;
51438;SDS011;38816;51.142;-0.974;2023-11-22T06:53:49;15.40;;;9.82;;
51438;SDS011;38816;51.142;-0.974;2023-11-22T06:56:14;25.63;;;9.80;;
51438;SDS011;38816;51.142;-0.974;2023-11-22T06:58:40;14.95;;;9.20;;
51438;SDS011;38816;51.142;-0.974;2023-11-22T07:01:05;23.73;;;10.15;;
51438;SDS011;38816;51.142;-0.974;2023-11-22T07:03:32;22.73;;;10.20;;
51438;SDS011;38816;51.142;-0.974;2023-11-22T07:05:57;15.43;;;10.02;;
51438;SDS011;38816;51.142;-0.974;2023-11-22T07:08:24;16.98;;;10.23;;
51438;SDS011;38816;51.142;-0.974;2023-11-22T07:10:50;20.13;;;8.68;;
51438;SDS011;38816;51.142;-0.974;2023-11-22T07:13:17;24.95;;;10.32;;
51438;SDS011;38816;51.142;-0.974;2023-11-22T07:15:43;18.10;;;10.15;;
51438;SDS011;38816;51.142;-0.974;2023-11-22T07:18:08;15.50;;;10.27;;
51438;SDS011;38816;51.142;-0.974;2023-11-22T07:20:35;13.15;;;9.02;;
51438;SDS011;38816;51.142;-0.974;2023-11-22T07:23:00;14.13;;;9.98;;
51438;SDS011;38816;51.142;-0.974;2023-11-22T07:25:27;12.80;;;10.60;;
51438;SDS011;38816;51.142;-0.974;2023-11-22T07:27:54;13.43;;;10.35;;
51438;SDS011;38816;51.142;-0.974;2023-11-22T07:30:19;16.10;;;10.13;;
51438;SDS011;38816;51.142;-0.974;2023-11-22T07:32:48;17.65;;;10.57;;
51438;SDS011;38816;51.142;-0.974;2023-11-22T07:35:15;14.50;;;10.43;;
51438;SDS011;38816;51.142;-0.974;2023-11-22T07:37:40;14.75;;;9.95;;
51438;SDS011;38816;51.142;-0.974;2023-11-22T07:40:09;12.07;;;10.25;;
51438;SDS011;38816;51.142;-0.974;2023-11-22T07:42:37;12.20;;;9.98;;
51438;SDS011;38816;51.142;-0.974;2023-11-22T07:45:02;10.10;;;8.93;;
51438;SDS011;38816;51.142;-0.974;2023-11-22T07:47:28;18.00;;;8.85;;
51438;SDS011;38816;51.142;-0.974;2023-11-22T07:49:54;16.52;;;7.45;;
51438;SDS011;38816;51.142;-0.974;2023-11-22T07:52:23;19.05;;;7.50;;
51438;SDS011;38816;51.142;-0.974;2023-11-22T07:54:55;19.23;;;8.07;;
51438;SDS011;38816;51.142;-0.974;2023-11-22T07:57:21;16.65;;;7.60;;
51438;SDS011;38816;51.142;-0.974;2023-11-22T07:59:48;17.23;;;6.38;;
51438;SDS011;38816;51.142;-0.974;2023-11-22T08:02:13;24.30;;;6.25;;
51438;SDS011;38816;51.142;-0.974;2023-11-22T08:04:43;19.60;;;6.50;;
51438;SDS011;38816;51.142;-0.974;2023-11-22T08:07:13;17.45;;;7.57;;
51438;SDS011;38816;51.142;-0.974;2023-11-22T08:09:40;15.75;;;5.97;;
51438;SDS011;38816;51.142;-0.974;2023-11-22T08:12:06;15.88;;;6.47;;
51438;SDS011;38816;51.142;-0.974;2023-11-22T08:14:32;19.20;;;6.85;;
51438;SDS011;38816;51.142;-0.974;2023-11-22T08:16:58;17.05;;;7.18;;
51438;SDS011;38816;51.142;-0.974;2023-11-22T08:19:23;13.73;;;6.38;;
51438;SDS011;38816;51.142;-0.974;2023-11-22T08:21:49;16.58;;;7.63;;
51438;SDS011;38816;51.142;-0.974;2023-11-22T08:24:15;17.00;;;6.75;;
51438;SDS011;38816;51.142;-0.974;2023-11-22T08:26:41;18.73;;;6.72;;
51438;SDS011;38816;51.142;-0.974;2023-11-22T08:29:06;21.60;;;6.68;;
51438;SDS011;38816;51.142;-0.974;2023-11-22T08:31:36;17.98;;;6.60;;
51438;SDS011;38816;51.142;-0.974;2023-11-22T08:34:02;15.38;;;7.88;;
51438;SDS011;38816;51.142;-0.974;2023-11-22T08:36:31;14.80;;;7.70;;
51438;SDS011;38816;51.142;-0.974;2023-11-22T08:38:59;19.20;;;7.78;;
51438;SDS011;38816;51.142;-0.974;2023-11-22T08:41:25;19.05;;;8.43;;
51438;SDS011;38816;51.142;-0.974;2023-11-22T08:43:52;16.50;;;7.45;;
51438;SDS011;38816;51.142;-0.974;2023-11-22T08:46:17;24.23;;;7.93;;
51438;SDS011;38816;51.142;-0.974;2023-11-22T08:48:43;15.68;;;7.45;;
51438;SDS011;38816;51.142;-0.974;2023-11-22T08:51:08;20.27;;;6.80;;
51438;SDS011;38816;51.142;-0.974;2023-11-22T08:53:35;23.23;;;6.47;;
51438;SDS011;38816;51.142;-0.974;2023-11-22T08:56:00;16.48;;;7.63;;
51438;SDS011;38816;51.142;-0.974;2023-11-22T08:58:30;14.73;;;7.07;;
51438;SDS011;38816;51.142;-0.974;2023-11-22T09:00:55;23.58;;;8.07;;
51438;SDS011;38816;51.142;-0.974;2023-11-22T09:03:23;21.55;;;7.68;;
51438;SDS011;38816;51.142;-0.974;2023-11-22T09:05:49;24.20;;;8.93;;
51438;SDS011;38816;51.142;-0.974;2023-11-22T09:08:14;22.70;;;7.90;;
51438;SDS011;38816;51.142;-0.974;2023-11-22T09:10:40;22.70;;;7.35;;
51438;SDS011;38816;51.142;-0.974;2023-11-22T09:13:09;17.40;;;8.30;;
51438;SDS011;38816;51.142;-0.974;2023-11-22T09:15:35;21.00;;;8.55;;
51438;SDS011;38816;51.142;-0.974;2023-11-22T09:18:03;19.02;;;10.30;;
51438;SDS011;38816;51.142;-0.974;2023-11-22T09:20:29;16.42;;;8.93;;
51438;SDS011;38816;51.142;-0.974;2023-11-22T09:22:55;14.77;;;8.00;;
51438;SDS011;38816;51.142;-0.974;2023-11-22T09:25:24;21.70;;;8.07;;
51438;SDS011;38816;51.142;-0.974;2023-11-22T09:27:51;13.23;;;7.38;;
51438;SDS011;38816;51.142;-0.974;2023-11-22T09:30:24;21.50;;;8.02;;
51438;SDS011;38816;51.142;-0.974;2023-11-22T09:33:07;13.95;;;8.50;;
51438;SDS011;38816;51.142;-0.974;2023-11-22T09:35:34;14.23;;;7.30;;
51438;SDS011;38816;51.142;-0.974;2023-11-22T09:38:01;12.98;;;6.40;;
51438;SDS011;38816;51.142;-0.974;2023-11-22T09:40:28;12.40;;;6.03;;
51438;SDS011;38816;51.142;-0.974;2023-11-22T09:43:03;9.57;;;5.25;;
51438;SDS011;38816;51.142;-0.974;2023-11-22T09:45:29;13.32;;;4.57;;
51438;SDS011;38816;51.142;-0.974;2023-11-22T09:47:56;11.82;;;5.40;;
51438;SDS011;38816;51.142;-0.974;2023-11-22T09:53:19;15.13;;;6.22;;
51438;SDS011;38816;51.142;-0.974;2023-11-22T09:55:47;11.30;;;4.75;;
51438;SDS011;38816;51.142;-0.974;2023-11-22T09:58:13;13.45;;;5.72;;
51438;SDS011;38816;51.142;-0.974;2023-11-22T10:00:41;11.48;;;5.43;;
51438;SDS011;38816;51.142;-0.974;2023-11-22T10:03:07;9.75;;;5.68;;
51438;SDS011;38816;51.142;-0.974;2023-11-22T10:05:34;8.73;;;5.43;;
51438;SDS011;38816;51.142;-0.974;2023-11-22T10:08:00;9.55;;;5.75;;
51438;SDS011;38816;51.142;-0.974;2023-11-22T10:10:26;15.95;;;5.55;;
51438;SDS011;38816;51.142;-0.974;2023-11-22T10:12:54;13.93;;;5.75;;
51438;SDS011;38816;51.142;-0.974;2023-11-22T10:15:23;14.60;;;5.45;;
51438;SDS011;38816;51.142;-0.974;2023-11-22T10:17:57;9.48;;;5.10;;
51438;SDS011;38816;51.142;-0.974;2023-11-22T10:20:35;9.75;;;4.53;;
51438;SDS011;38816;51.142;-0.974;2023-11-22T10:23:10;9.93;;;5.00;;
51438;SDS011;38816;51.142;-0.974;2023-11-22T10:25:43;9.30;;;5.35;;
51438;SDS011;38816;51.142;-0.974;2023-11-22T10:28:09;12.65;;;4.72;;
51438;SDS011;38816;51.142;-0.974;2023-11-22T10:30:34;17.50;;;5.68;;
51438;SDS011;38816;51.142;-0.974;2023-11-22T10:33:00;10.07;;;5.00;;
51438;SDS011;38816;51.142;-0.974;2023-11-22T10:35:28;11.38;;;4.85;;
51438;SDS011;38816;51.142;-0.974;2023-11-22T10:37:53;8.32;;;4.60;;
51438;SDS011;38816;51.142;-0.974;2023-11-22T10:40:18;8.70;;;4.55;;
51438;SDS011;38816;51.142;-0.974;2023-11-22T10:42:44;9.82;;;4.47;;
51438;SDS011;38816;51.142;-0.974;2023-11-22T10:45:14;8.02;;;4.68;;
51438;SDS011;38816;51.142;-0.974;2023-11-22T10:47:41;11.00;;;5.18;;
51438;SDS011;38816;51.142;-0.974;2023-11-22T10:50:08;9.68;;;5.10;;
51438;SDS011;38816;51.142;-0.974;2023-11-22T10:52:37;19.17;;;5.50;;
51438;SDS011;38816;51.142;-0.974;2023-11-22T10:55:07;10.07;;;5.88;;
51438;SDS011;38816;51.142;-0.974;2023-11-22T10:57:45;10.05;;;4.30;;
51438;SDS011;38816;51.142;-0.974;2023-11-22T11:00:15;10.70;;;4.80;;
51438;SDS011;38816;51.142;-0.974;2023-11-22T11:02:45;10.68;;;4.90;;
51438;SDS011;38816;51.142;-0.974;2023-11-22T11:05:24;10.30;;;4.43;;
51438;SDS011;38816;51.142;-0.974;2023-11-22T11:07:58;7.65;;;4.43;;
51438;SDS011;38816;51.142;-0.974;2023-11-22T11:10:28;8.10;;;4.50;;
51438;SDS011;38816;51.142;-0.974;2023-11-22T11:12:56;12.30;;;5.20;;
51438;SDS011;38816;51.142;-0.974;2023-11-22T11:15:22;6.55;;;4.03;;
51438;SDS011;38816;51.142;-0.974;2023-11-22T11:17:48;9.93;;;4.22;;
51438;SDS011;38816;51.142;-0.974;2023-11-22T11:20:15;13.73;;;6.90;;
51438;SDS011;38816;51.142;-0.974;2023-11-22T11:22:43;7.47;;;5.20;;
51438;SDS011;38816;51.142;-0.974;2023-11-22T11:25:11;7.80;;;5.68;;
51438;SDS011;38816;51.142;-0.974;2023-11-22T11:27:41;8.27;;;5.75;;
51438;SDS011;38816;51.142;-0.974;2023-11-22T11:35:43;7.28;;;4.43;;
51438;SDS011;38816;51.142;-0.974;2023-11-22T11:38:13;13.25;;;4.72;;
51438;SDS011;38816;51.142;-0.974;2023-11-22T11:40:43;6.93;;;4.05;;
51438;SDS011;38816;51.142;-0.974;2023-11-22T11:43:11;10.75;;;4.82;;
51438;SDS011;38816;51.142;-0.974;2023-11-22T11:45:42;11.25;;;4.10;;
51438;SDS011;38816;51.142;-0.974;2023-11-22T11:48:15;10.20;;;4.15;;
51438;SDS011;38816;51.142;-0.974;2023-11-22T11:50:42;8.27;;;3.83;;
51438;SDS011;38816;51.142;-0.974;2023-11-22T11:53:11;9.52;;;3.70;;
51438;SDS011;38816;51.142;-0.974;2023-11-22T11:55:36;13.20;;;3.85;;
51438;SDS011;38816;51.142;-0.974;2023-11-22T11:58:04;6.65;;;4.68;;
51438;SDS011;38816;51.142;-0.974;2023-11-22T12:00:30;8.13;;;4.10;;
51438;SDS011;38816;51.142;-0.974;2023-11-22T12:02:56;7.82;;;4.00;;
51438;SDS011;38816;51.142;-0.974;2023-11-22T12:05:22;9.32;;;5.78;;
51438;SDS011;38816;51.142;-0.974;2023-11-22T12:07:47;11.18;;;6.78;;
51438;SDS011;38816;51.142;-0.974;2023-11-22T12:10:13;11.00;;;8.52;;
51438;SDS011;38816;51.142;-0.974;2023-11-22T12:12:39;13.65;;;4.90;;
51438;SDS011;38816;51.142;-0.974;2023-11-22T12:15:05;11.13;;;4.00;;
51438;SDS011;38816;51.142;-0.974;2023-11-22T12:17:34;9.05;;;4.40;;
51438;SDS011;38816;51.142;-0.974;2023-11-22T12:20:14;7.78;;;4.95;;
51438;SDS011;38816;51.142;-0.974;2023-11-22T12:22:46;10.50;;;5.03;;
51438;SDS011;38816;51.142;-0.974;2023-11-22T12:25:13;9.60;;;4.28;;
51438;SDS011;38816;51.142;-0.974;2023-11-22T12:27:40;5.38;;;3.97;;
51438;SDS011;38816;51.142;-0.974;2023-11-22T12:30:06;7.72;;;3.85;;
51438;SDS011;38816;51.142;-0.974;2023-11-22T12:32:33;5.65;;;3.80;;
51438;SDS011;38816;51.142;-0.974;2023-11-22T12:34:59;8.82;;;3.72;;
51438;SDS011;38816;51.142;-0.974;2023-11-22T12:37:24;7.80;;;4.15;;
51438;SDS011;38816;51.142;-0.974;2023-11-22T12:39:52;8.70;;;4.35;;
51438;SDS011;38816;51.142;-0.974;2023-11-22T12:42:19;8.75;;;4.28;;
51438;SDS011;38816;51.142;-0.974;2023-11-22T12:44:49;9.93;;;4.85;;
51438;SDS011;38816;51.142;-0.974;2023-11-22T12:47:38;7.80;;;4.32;;
51438;SDS011;38816;51.142;-0.974;2023-11-22T12:50:03;10.60;;;4.38;;
51438;SDS011;38816;51.142;-0.974;2023-11-22T12:52:29;8.88;;;4.50;;
51438;SDS011;38816;51.142;-0.974;2023-11-22T12:54:57;8.68;;;3.83;;
51438;SDS011;38816;51.142;-0.974;2023-11-22T12:57:23;6.97;;;3.92;;
51438;SDS011;38816;51.142;-0.974;2023-11-22T12:59:49;8.15;;;3.75;;
51438;SDS011;38816;51.142;-0.974;2023-11-22T13:02:14;9.07;;;3.88;;
51438;SDS011;38816;51.142;-0.974;2023-11-22T13:04:42;7.28;;;3.65;;
51438;SDS011;38816;51.142;-0.974;2023-11-22T13:07:07;9.35;;;3.88;;
51438;SDS011;38816;51.142;-0.974;2023-11-22T13:09:33;9.57;;;5.40;;
51438;SDS011;38816;51.142;-0.974;2023-11-22T13:12:03;10.32;;;4.68;;
51438;SDS011;38816;51.142;-0.974;2023-11-22T13:14:29;12.10;;;4.25;;
51438;SDS011;38816;51.142;-0.974;2023-11-22T13:17:03;7.30;;;4.20;;
51438;SDS011;38816;51.142;-0.974;2023-11-22T13:19:29;12.55;;;4.47;;
51438;SDS011;38816;51.142;-0.974;2023-11-22T13:21:55;8.88;;;4.90;;
51438;SDS011;38816;51.142;-0.974;2023-11-22T13:24:20;13.20;;;4.88;;
51438;SDS011;38816;51.142;-0.974;2023-11-22T13:26:45;9.82;;;4.20;;
51438;SDS011;38816;51.142;-0.974;2023-11-22T13:29:11;9.55;;;4.10;;
51438;SDS011;38816;51.142;-0.974;2023-11-22T13:31:36;12.77;;;4.07;;
51438;SDS011;38816;51.142;-0.974;2023-11-22T13:34:02;11.85;;;4.63;;
51438;SDS011;38816;51.142;-0.974;2023-11-22T13:36:27;14.90;;;4.07;;
51438;SDS011;38816;51.142;-0.974;2023-11-22T13:38:52;10.63;;;3.78;;
51438;SDS011;38816;51.142;-0.974;2023-11-22T13:41:20;10.32;;;4.13;;
51438;SDS011;38816;51.142;-0.974;2023-11-22T13:43:46;7.47;;;3.95;;
51438;SDS011;38816;51.142;-0.974;2023-11-22T13:46:14;10.75;;;3.70;;
51438;SDS011;38816;51.142;-0.974;2023-11-22T13:48:40;23.73;;;4.65;;
51438;SDS011;38816;51.142;-0.974;2023-11-22T13:51:06;13.68;;;4.28;;
51438;SDS011;38816;51.142;-0.974;2023-11-22T13:53:33;12.63;;;4.40;;
51438;SDS011;38816;51.142;-0.974;2023-11-22T13:56:01;7.75;;;3.78;;
51438;SDS011;38816;51.142;-0.974;2023-11-22T13:58:33;13.80;;;4.13;;
51438;SDS011;38816;51.142;-0.974;2023-11-22T14:00:58;14.00;;;3.78;;
51438;SDS011;38816;51.142;-0.974;2023-11-22T14:03:24;7.22;;;3.60;;
51438;SDS011;38816;51.142;-0.974;2023-11-22T14:05:49;11.75;;;5.82;;
51438;SDS011;38816;51.142;-0.974;2023-11-22T14:08:15;12.35;;;4.05;;
51438;SDS011;38816;51.142;-0.974;2023-11-22T14:10:40;14.65;;;4.85;;
51438;SDS011;38816;51.142;-0.974;2023-11-22T14:13:06;12.85;;;5.18;;
51438;SDS011;38816;51.142;-0.974;2023-11-22T14:15:33;8.40;;;3.45;;
51438;SDS011;38816;51.142;-0.974;2023-11-22T14:17:59;12.85;;;5.60;;
51438;SDS011;38816;51.142;-0.974;2023-11-22T14:20:25;6.20;;;3.40;;
51438;SDS011;38816;51.142;-0.974;2023-11-22T14:22:50;12.23;;;4.00;;
51438;SDS011;38816;51.142;-0.974;2023-11-22T14:25:16;14.25;;;3.75;;
51438;SDS011;38816;51.142;-0.974;2023-11-22T14:27:42;14.98;;;4.05;;
51438;SDS011;38816;51.142;-0.974;2023-11-22T14:30:09;12.90;;;5.47;;